sensor_id;sensor_type;location;lat;lon;timestamp;P1;durP1;ratioP1;P2;durP2;ratioP2
31306;SDS011;17935;51.120;13.132;2023-08-20T00:02:20;14.43;;;8.90;;
31306;SDS011;17935;51.120;13.132;2023-08-20T00:04:49;12.65;;;8.82;;
31306;SDS011;17935;51.120;13.132;2023-08-20T00:07:15;13.38;;;8.65;;
31306;SDS011;17935;51.120;13.132;2023-08-20T00:09:43;13.40;;;8.55;;
31306;SDS011;17935;51.120;13.132;2023-08-20T00:12:09;16.08;;;8.52;;
31306;SDS011;17935;51.120;13.132;2023-08-20T00:14:52;13.52;;;8.32;;
31306;SDS011;17935;51.120;13.132;2023-08-20T00:17:19;16.50;;;8.15;;
31306;SDS011;17935;51.120;13.132;2023-08-20T00:19:45;20.77;;;8.55;;
31306;SDS011;17935;51.120;13.132;2023-08-20T00:22:11;13.07;;;8.43;;
31306;SDS011;17935;51.120;13.132;2023-08-20T00:24:38;15.68;;;8.35;;
31306;SDS011;17935;51.120;13.132;2023-08-20T00:27:04;11.52;;;7.75;;
31306;SDS011;17935;51.120;13.132;2023-08-20T00:29:30;17.45;;;8.70;;
31306;SDS011;17935;51.120;13.132;2023-08-20T00:31:56;14.85;;;8.38;;
31306;SDS011;17935;51.120;13.132;2023-08-20T00:34:22;14.00;;;8.38;;
31306;SDS011;17935;51.120;13.132;2023-08-20T00:36:48;16.08;;;8.20;;
31306;SDS011;17935;51.120;13.132;2023-08-20T00:39:14;16.60;;;9.18;;
31306;SDS011;17935;51.120;13.132;2023-08-20T00:41:40;18.25;;;10.30;;
31306;SDS011;17935;51.120;13.132;2023-08-20T00:44:06;22.13;;;8.73;;
31306;SDS011;17935;51.120;13.132;2023-08-20T00:46:32;13.73;;;8.88;;
31306;SDS011;17935;51.120;13.132;2023-08-20T00:48:58;14.63;;;8.73;;
31306;SDS011;17935;51.120;13.132;2023-08-20T00:51:24;15.50;;;9.00;;
31306;SDS011;17935;51.120;13.132;2023-08-20T00:53:50;13.48;;;8.38;;
31306;SDS011;17935;51.120;13.132;2023-08-20T00:56:16;10.73;;;8.20;;
31306;SDS011;17935;51.120;13.132;2023-08-20T00:58:42;12.98;;;8.57;;
31306;SDS011;17935;51.120;13.132;2023-08-20T01:01:08;16.02;;;9.75;;
31306;SDS011;17935;51.120;13.132;2023-08-20T01:03:34;14.13;;;8.80;;
31306;SDS011;17935;51.120;13.132;2023-08-20T01:06:04;18.00;;;8.68;;
31306;SDS011;17935;51.120;13.132;2023-08-20T01:08:37;19.08;;;9.15;;
31306;SDS011;17935;51.120;13.132;2023-08-20T01:11:12;11.90;;;9.05;;
31306;SDS011;17935;51.120;13.132;2023-08-20T01:13:41;14.98;;;9.10;;
31306;SDS011;17935;51.120;13.132;2023-08-20T01:16:08;18.10;;;9.30;;
31306;SDS011;17935;51.120;13.132;2023-08-20T01:18:34;25.38;;;9.52;;
31306;SDS011;17935;51.120;13.132;2023-08-20T01:21:02;16.52;;;8.93;;
31306;SDS011;17935;51.120;13.132;2023-08-20T01:23:33;12.02;;;9.15;;
31306;SDS011;17935;51.120;13.132;2023-08-20T01:26:07;11.68;;;8.52;;
31306;SDS011;17935;51.120;13.132;2023-08-20T01:28:38;11.98;;;8.50;;
31306;SDS011;17935;51.120;13.132;2023-08-20T01:31:04;15.90;;;9.02;;
31306;SDS011;17935;51.120;13.132;2023-08-20T01:33:31;22.20;;;10.50;;
31306;SDS011;17935;51.120;13.132;2023-08-20T01:35:57;15.68;;;9.23;;
31306;SDS011;17935;51.120;13.132;2023-08-20T01:38:23;22.88;;;9.07;;
31306;SDS011;17935;51.120;13.132;2023-08-20T01:40:49;14.75;;;9.35;;
31306;SDS011;17935;51.120;13.132;2023-08-20T01:43:15;12.95;;;8.63;;
31306;SDS011;17935;51.120;13.132;2023-08-20T01:45:42;12.20;;;8.23;;
31306;SDS011;17935;51.120;13.132;2023-08-20T01:48:08;12.68;;;9.02;;
31306;SDS011;17935;51.120;13.132;2023-08-20T01:50:34;13.90;;;8.77;;
31306;SDS011;17935;51.120;13.132;2023-08-20T01:53:01;12.65;;;9.35;;
31306;SDS011;17935;51.120;13.132;2023-08-20T01:55:27;17.77;;;9.68;;
31306;SDS011;17935;51.120;13.132;2023-08-20T01:57:53;12.48;;;8.77;;
31306;SDS011;17935;51.120;13.132;2023-08-20T02:00:19;14.43;;;8.63;;
31306;SDS011;17935;51.120;13.132;2023-08-20T02:02:45;17.95;;;8.82;;
31306;SDS011;17935;51.120;13.132;2023-08-20T02:05:11;17.05;;;8.57;;
31306;SDS011;17935;51.120;13.132;2023-08-20T02:07:37;21.02;;;8.60;;
31306;SDS011;17935;51.120;13.132;2023-08-20T02:10:04;16.83;;;8.48;;
31306;SDS011;17935;51.120;13.132;2023-08-20T02:12:30;18.70;;;7.68;;
31306;SDS011;17935;51.120;13.132;2023-08-20T02:14:56;15.00;;;7.90;;
31306;SDS011;17935;51.120;13.132;2023-08-20T02:17:22;10.57;;;7.57;;
31306;SDS011;17935;51.120;13.132;2023-08-20T02:19:51;11.70;;;7.80;;
31306;SDS011;17935;51.120;13.132;2023-08-20T02:22:17;8.65;;;7.18;;
31306;SDS011;17935;51.120;13.132;2023-08-20T02:24:45;11.50;;;8.10;;
31306;SDS011;17935;51.120;13.132;2023-08-20T02:27:11;13.90;;;9.10;;
31306;SDS011;17935;51.120;13.132;2023-08-20T02:29:37;12.95;;;8.48;;
31306;SDS011;17935;51.120;13.132;2023-08-20T02:32:03;12.55;;;8.65;;
31306;SDS011;17935;51.120;13.132;2023-08-20T02:34:29;14.68;;;8.35;;
31306;SDS011;17935;51.120;13.132;2023-08-20T02:36:55;12.52;;;8.15;;
31306;SDS011;17935;51.120;13.132;2023-08-20T02:39:21;18.05;;;8.43;;
31306;SDS011;17935;51.120;13.132;2023-08-20T02:41:49;15.07;;;7.40;;
31306;SDS011;17935;51.120;13.132;2023-08-20T02:44:15;12.43;;;7.32;;
31306;SDS011;17935;51.120;13.132;2023-08-20T02:46:41;22.73;;;8.30;;
31306;SDS011;17935;51.120;13.132;2023-08-20T02:49:09;10.68;;;7.60;;
31306;SDS011;17935;51.120;13.132;2023-08-20T02:51:35;12.00;;;9.27;;
31306;SDS011;17935;51.120;13.132;2023-08-20T02:54:01;14.30;;;8.98;;
31306;SDS011;17935;51.120;13.132;2023-08-20T02:56:27;14.43;;;8.40;;
31306;SDS011;17935;51.120;13.132;2023-08-20T02:58:54;12.68;;;8.32;;
31306;SDS011;17935;51.120;13.132;2023-08-20T03:01:20;15.95;;;8.73;;
31306;SDS011;17935;51.120;13.132;2023-08-20T03:03:47;14.48;;;8.13;;
31306;SDS011;17935;51.120;13.132;2023-08-20T03:06:13;16.58;;;7.95;;
31306;SDS011;17935;51.120;13.132;2023-08-20T03:08:39;11.50;;;8.02;;
31306;SDS011;17935;51.120;13.132;2023-08-20T03:11:05;10.90;;;8.18;;
31306;SDS011;17935;51.120;13.132;2023-08-20T03:13:31;13.32;;;8.63;;
31306;SDS011;17935;51.120;13.132;2023-08-20T03:15:57;12.68;;;8.77;;
31306;SDS011;17935;51.120;13.132;2023-08-20T03:18:23;12.00;;;9.35;;
31306;SDS011;17935;51.120;13.132;2023-08-20T03:20:49;10.88;;;8.70;;
31306;SDS011;17935;51.120;13.132;2023-08-20T03:23:15;13.43;;;8.98;;
31306;SDS011;17935;51.120;13.132;2023-08-20T03:25:41;12.57;;;8.32;;
31306;SDS011;17935;51.120;13.132;2023-08-20T03:28:07;14.15;;;8.90;;
31306;SDS011;17935;51.120;13.132;2023-08-20T03:30:33;12.02;;;9.35;;
31306;SDS011;17935;51.120;13.132;2023-08-20T03:32:59;12.77;;;8.75;;
31306;SDS011;17935;51.120;13.132;2023-08-20T03:35:25;13.38;;;9.13;;
31306;SDS011;17935;51.120;13.132;2023-08-20T03:37:51;10.50;;;8.70;;
31306;SDS011;17935;51.120;13.132;2023-08-20T03:40:17;13.43;;;9.00;;
31306;SDS011;17935;51.120;13.132;2023-08-20T03:42:43;10.63;;;8.57;;
31306;SDS011;17935;51.120;13.132;2023-08-20T03:45:09;19.02;;;9.60;;
31306;SDS011;17935;51.120;13.132;2023-08-20T03:47:35;12.60;;;9.77;;
31306;SDS011;17935;51.120;13.132;2023-08-20T03:50:02;12.48;;;9.10;;
31306;SDS011;17935;51.120;13.132;2023-08-20T03:52:28;15.57;;;9.23;;
31306;SDS011;17935;51.120;13.132;2023-08-20T03:54:54;10.50;;;9.38;;
31306;SDS011;17935;51.120;13.132;2023-08-20T03:57:20;11.20;;;9.70;;
31306;SDS011;17935;51.120;13.132;2023-08-20T03:59:47;13.63;;;9.32;;
31306;SDS011;17935;51.120;13.132;2023-08-20T04:02:13;13.00;;;9.23;;
31306;SDS011;17935;51.120;13.132;2023-08-20T04:04:39;12.82;;;9.23;;
31306;SDS011;17935;51.120;13.132;2023-08-20T04:07:05;14.57;;;9.00;;
31306;SDS011;17935;51.120;13.132;2023-08-20T04:09:32;12.73;;;8.48;;
31306;SDS011;17935;51.120;13.132;2023-08-20T04:11:58;15.30;;;8.18;;
31306;SDS011;17935;51.120;13.132;2023-08-20T04:14:25;15.13;;;9.45;;
31306;SDS011;17935;51.120;13.132;2023-08-20T04:16:51;11.68;;;8.98;;
31306;SDS011;17935;51.120;13.132;2023-08-20T04:19:17;10.90;;;8.27;;
31306;SDS011;17935;51.120;13.132;2023-08-20T04:21:43;13.57;;;8.52;;
31306;SDS011;17935;51.120;13.132;2023-08-20T04:24:09;10.65;;;8.40;;
31306;SDS011;17935;51.120;13.132;2023-08-20T04:26:35;14.00;;;8.45;;
31306;SDS011;17935;51.120;13.132;2023-08-20T04:29:01;18.25;;;9.35;;
31306;SDS011;17935;51.120;13.132;2023-08-20T04:31:27;10.18;;;8.95;;
31306;SDS011;17935;51.120;13.132;2023-08-20T04:33:53;11.90;;;8.35;;
31306;SDS011;17935;51.120;13.132;2023-08-20T04:36:19;12.85;;;8.52;;
31306;SDS011;17935;51.120;13.132;2023-08-20T04:38:45;10.38;;;9.25;;
31306;SDS011;17935;51.120;13.132;2023-08-20T04:41:11;13.45;;;9.25;;
31306;SDS011;17935;51.120;13.132;2023-08-20T04:43:37;13.50;;;8.45;;
31306;SDS011;17935;51.120;13.132;2023-08-20T04:46:03;11.18;;;7.70;;
31306;SDS011;17935;51.120;13.132;2023-08-20T04:48:29;10.65;;;8.95;;
31306;SDS011;17935;51.120;13.132;2023-08-20T04:50:55;9.85;;;8.25;;
31306;SDS011;17935;51.120;13.132;2023-08-20T04:53:21;9.95;;;8.35;;
31306;SDS011;17935;51.120;13.132;2023-08-20T04:55:47;14.23;;;8.20;;
31306;SDS011;17935;51.120;13.132;2023-08-20T04:58:13;19.52;;;7.60;;
31306;SDS011;17935;51.120;13.132;2023-08-20T05:00:39;8.52;;;7.55;;
31306;SDS011;17935;51.120;13.132;2023-08-20T05:03:08;11.35;;;8.18;;
31306;SDS011;17935;51.120;13.132;2023-08-20T05:05:34;10.50;;;7.35;;
31306;SDS011;17935;51.120;13.132;2023-08-20T05:08:00;11.27;;;7.35;;
31306;SDS011;17935;51.120;13.132;2023-08-20T05:10:26;12.85;;;8.25;;
31306;SDS011;17935;51.120;13.132;2023-08-20T05:12:52;10.25;;;7.88;;
31306;SDS011;17935;51.120;13.132;2023-08-20T05:15:18;15.93;;;8.88;;
31306;SDS011;17935;51.120;13.132;2023-08-20T05:17:45;9.55;;;8.55;;
31306;SDS011;17935;51.120;13.132;2023-08-20T05:20:11;15.15;;;7.88;;
31306;SDS011;17935;51.120;13.132;2023-08-20T05:22:37;8.27;;;7.47;;
31306;SDS011;17935;51.120;13.132;2023-08-20T05:25:03;10.38;;;7.72;;
31306;SDS011;17935;51.120;13.132;2023-08-20T05:27:29;16.92;;;8.13;;
31306;SDS011;17935;51.120;13.132;2023-08-20T05:29:55;11.70;;;8.00;;
31306;SDS011;17935;51.120;13.132;2023-08-20T05:32:21;10.10;;;7.45;;
31306;SDS011;17935;51.120;13.132;2023-08-20T05:34:47;16.35;;;7.82;;
31306;SDS011;17935;51.120;13.132;2023-08-20T05:37:13;12.77;;;8.13;;
31306;SDS011;17935;51.120;13.132;2023-08-20T05:39:42;9.75;;;8.02;;
31306;SDS011;17935;51.120;13.132;2023-08-20T05:42:08;8.93;;;7.03;;
31306;SDS011;17935;51.120;13.132;2023-08-20T05:44:34;9.35;;;7.80;;
31306;SDS011;17935;51.120;13.132;2023-08-20T05:47:00;9.85;;;7.55;;
31306;SDS011;17935;51.120;13.132;2023-08-20T05:49:27;10.32;;;7.32;;
31306;SDS011;17935;51.120;13.132;2023-08-20T05:51:53;8.07;;;7.28;;
31306;SDS011;17935;51.120;13.132;2023-08-20T05:54:19;10.75;;;8.00;;
31306;SDS011;17935;51.120;13.132;2023-08-20T05:56:45;10.60;;;7.60;;
31306;SDS011;17935;51.120;13.132;2023-08-20T05:59:11;10.65;;;7.63;;
31306;SDS011;17935;51.120;13.132;2023-08-20T06:01:37;12.60;;;8.32;;
31306;SDS011;17935;51.120;13.132;2023-08-20T06:04:03;8.20;;;6.70;;
31306;SDS011;17935;51.120;13.132;2023-08-20T06:06:29;11.55;;;6.53;;
31306;SDS011;17935;51.120;13.132;2023-08-20T06:08:55;8.25;;;5.38;;
31306;SDS011;17935;51.120;13.132;2023-08-20T06:11:21;8.15;;;5.97;;
31306;SDS011;17935;51.120;13.132;2023-08-20T06:13:47;12.73;;;6.35;;
31306;SDS011;17935;51.120;13.132;2023-08-20T06:16:13;8.80;;;6.00;;
31306;SDS011;17935;51.120;13.132;2023-08-20T06:18:39;11.88;;;6.50;;
31306;SDS011;17935;51.120;13.132;2023-08-20T06:21:05;9.15;;;5.65;;
31306;SDS011;17935;51.120;13.132;2023-08-20T06:23:31;7.53;;;5.63;;
31306;SDS011;17935;51.120;13.132;2023-08-20T06:25:57;6.47;;;5.60;;
31306;SDS011;17935;51.120;13.132;2023-08-20T06:28:23;10.18;;;6.28;;
31306;SDS011;17935;51.120;13.132;2023-08-20T06:30:49;9.63;;;5.70;;
31306;SDS011;17935;51.120;13.132;2023-08-20T06:33:15;9.15;;;5.75;;
31306;SDS011;17935;51.120;13.132;2023-08-20T06:35:41;10.25;;;7.28;;
31306;SDS011;17935;51.120;13.132;2023-08-20T06:38:07;8.18;;;5.53;;
31306;SDS011;17935;51.120;13.132;2023-08-20T06:40:33;6.38;;;5.28;;
31306;SDS011;17935;51.120;13.132;2023-08-20T06:42:59;8.25;;;6.03;;
31306;SDS011;17935;51.120;13.132;2023-08-20T06:45:25;8.18;;;5.75;;
31306;SDS011;17935;51.120;13.132;2023-08-20T06:47:51;10.63;;;6.03;;
31306;SDS011;17935;51.120;13.132;2023-08-20T06:50:17;9.10;;;5.78;;
31306;SDS011;17935;51.120;13.132;2023-08-20T06:52:43;11.48;;;5.53;;
31306;SDS011;17935;51.120;13.132;2023-08-20T06:55:09;10.68;;;6.55;;
31306;SDS011;17935;51.120;13.132;2023-08-20T06:57:35;7.28;;;5.72;;
31306;SDS011;17935;51.120;13.132;2023-08-20T07:00:01;8.73;;;6.30;;
31306;SDS011;17935;51.120;13.132;2023-08-20T07:02:29;8.60;;;7.03;;
31306;SDS011;17935;51.120;13.132;2023-08-20T07:04:55;9.48;;;6.78;;
31306;SDS011;17935;51.120;13.132;2023-08-20T07:07:21;9.63;;;8.05;;
31306;SDS011;17935;51.120;13.132;2023-08-20T07:09:47;10.90;;;8.13;;
31306;SDS011;17935;51.120;13.132;2023-08-20T07:12:13;14.90;;;7.75;;
31306;SDS011;17935;51.120;13.132;2023-08-20T07:14:39;8.15;;;7.25;;
31306;SDS011;17935;51.120;13.132;2023-08-20T07:17:05;9.00;;;6.55;;
31306;SDS011;17935;51.120;13.132;2023-08-20T07:19:31;6.70;;;5.82;;
31306;SDS011;17935;51.120;13.132;2023-08-20T07:21:57;12.48;;;6.40;;
31306;SDS011;17935;51.120;13.132;2023-08-20T07:24:23;7.32;;;5.93;;
31306;SDS011;17935;51.120;13.132;2023-08-20T07:26:51;7.15;;;6.03;;
31306;SDS011;17935;51.120;13.132;2023-08-20T07:29:17;7.10;;;6.40;;
31306;SDS011;17935;51.120;13.132;2023-08-20T07:31:43;11.65;;;6.85;;
31306;SDS011;17935;51.120;13.132;2023-08-20T07:34:09;10.10;;;6.93;;
31306;SDS011;17935;51.120;13.132;2023-08-20T07:36:35;10.45;;;7.63;;
31306;SDS011;17935;51.120;13.132;2023-08-20T07:39:01;11.45;;;7.75;;
31306;SDS011;17935;51.120;13.132;2023-08-20T07:41:27;9.52;;;7.30;;
31306;SDS011;17935;51.120;13.132;2023-08-20T07:43:53;8.32;;;7.28;;
31306;SDS011;17935;51.120;13.132;2023-08-20T07:46:19;11.68;;;8.27;;
31306;SDS011;17935;51.120;13.132;2023-08-20T07:48:45;9.52;;;7.32;;
31306;SDS011;17935;51.120;13.132;2023-08-20T07:51:11;13.70;;;8.05;;
31306;SDS011;17935;51.120;13.132;2023-08-20T07:53:37;8.77;;;7.13;;
31306;SDS011;17935;51.120;13.132;2023-08-20T07:56:04;12.50;;;7.53;;
31306;SDS011;17935;51.120;13.132;2023-08-20T07:58:30;8.80;;;7.57;;
31306;SDS011;17935;51.120;13.132;2023-08-20T08:00:56;10.43;;;7.20;;
31306;SDS011;17935;51.120;13.132;2023-08-20T08:03:24;9.75;;;7.20;;
31306;SDS011;17935;51.120;13.132;2023-08-20T08:05:51;15.98;;;8.60;;
31306;SDS011;17935;51.120;13.132;2023-08-20T08:08:18;13.40;;;9.60;;
31306;SDS011;17935;51.120;13.132;2023-08-20T08:10:45;14.85;;;9.32;;
31306;SDS011;17935;51.120;13.132;2023-08-20T08:13:15;12.30;;;9.30;;
31306;SDS011;17935;51.120;13.132;2023-08-20T08:15:41;15.90;;;9.60;;
31306;SDS011;17935;51.120;13.132;2023-08-20T08:18:07;11.95;;;10.23;;
31306;SDS011;17935;51.120;13.132;2023-08-20T08:20:33;14.25;;;9.70;;
31306;SDS011;17935;51.120;13.132;2023-08-20T08:22:59;11.45;;;10.25;;
31306;SDS011;17935;51.120;13.132;2023-08-20T08:25:26;9.55;;;8.60;;
31306;SDS011;17935;51.120;13.132;2023-08-20T08:27:52;11.50;;;8.35;;
31306;SDS011;17935;51.120;13.132;2023-08-20T08:30:18;12.70;;;9.80;;
31306;SDS011;17935;51.120;13.132;2023-08-20T08:32:44;10.00;;;8.73;;
31306;SDS011;17935;51.120;13.132;2023-08-20T08:35:10;10.25;;;8.27;;
31306;SDS011;17935;51.120;13.132;2023-08-20T08:37:36;12.65;;;9.63;;
31306;SDS011;17935;51.120;13.132;2023-08-20T08:40:02;13.90;;;8.70;;
31306;SDS011;17935;51.120;13.132;2023-08-20T08:42:32;9.73;;;7.68;;
31306;SDS011;17935;51.120;13.132;2023-08-20T08:45:01;6.80;;;6.10;;
31306;SDS011;17935;51.120;13.132;2023-08-20T08:47:29;8.68;;;6.63;;
31306;SDS011;17935;51.120;13.132;2023-08-20T08:49:55;8.45;;;7.57;;
31306;SDS011;17935;51.120;13.132;2023-08-20T08:52:25;8.45;;;7.65;;
31306;SDS011;17935;51.120;13.132;2023-08-20T08:54:51;7.45;;;6.75;;
31306;SDS011;17935;51.120;13.132;2023-08-20T08:57:17;13.48;;;8.25;;
31306;SDS011;17935;51.120;13.132;2023-08-20T08:59:43;8.05;;;7.00;;
31306;SDS011;17935;51.120;13.132;2023-08-20T09:02:10;8.68;;;7.75;;
31306;SDS011;17935;51.120;13.132;2023-08-20T09:04:42;8.55;;;7.28;;
31306;SDS011;17935;51.120;13.132;2023-08-20T09:07:12;10.68;;;7.95;;
31306;SDS011;17935;51.120;13.132;2023-08-20T09:09:41;10.52;;;7.85;;
31306;SDS011;17935;51.120;13.132;2023-08-20T09:12:14;9.73;;;7.20;;
31306;SDS011;17935;51.120;13.132;2023-08-20T09:14:43;9.07;;;7.38;;
31306;SDS011;17935;51.120;13.132;2023-08-20T09:17:11;9.75;;;7.78;;
31306;SDS011;17935;51.120;13.132;2023-08-20T09:19:37;10.45;;;7.35;;
31306;SDS011;17935;51.120;13.132;2023-08-20T09:22:03;8.75;;;7.85;;
31306;SDS011;17935;51.120;13.132;2023-08-20T09:24:33;10.45;;;7.40;;
31306;SDS011;17935;51.120;13.132;2023-08-20T09:27:03;10.35;;;7.85;;
31306;SDS011;17935;51.120;13.132;2023-08-20T09:29:31;7.95;;;7.15;;
31306;SDS011;17935;51.120;13.132;2023-08-20T09:32:01;10.68;;;7.38;;
31306;SDS011;17935;51.120;13.132;2023-08-20T09:34:37;7.93;;;7.18;;
31306;SDS011;17935;51.120;13.132;2023-08-20T09:37:07;8.60;;;7.30;;
31306;SDS011;17935;51.120;13.132;2023-08-20T09:39:33;8.32;;;7.43;;
31306;SDS011;17935;51.120;13.132;2023-08-20T09:41:59;9.88;;;7.13;;
31306;SDS011;17935;51.120;13.132;2023-08-20T09:44:25;7.90;;;6.70;;
31306;SDS011;17935;51.120;13.132;2023-08-20T09:46:53;6.53;;;5.93;;
31306;SDS011;17935;51.120;13.132;2023-08-20T09:49:19;8.65;;;6.25;;
31306;SDS011;17935;51.120;13.132;2023-08-20T09:51:46;9.45;;;7.32;;
31306;SDS011;17935;51.120;13.132;2023-08-20T09:54:25;10.15;;;7.75;;
31306;SDS011;17935;51.120;13.132;2023-08-20T09:56:54;7.95;;;7.10;;
31306;SDS011;17935;51.120;13.132;2023-08-20T09:59:23;7.10;;;6.40;;
31306;SDS011;17935;51.120;13.132;2023-08-20T10:01:49;7.65;;;6.53;;
31306;SDS011;17935;51.120;13.132;2023-08-20T10:04:16;11.95;;;8.50;;
31306;SDS011;17935;51.120;13.132;2023-08-20T10:06:43;8.95;;;6.50;;
31306;SDS011;17935;51.120;13.132;2023-08-20T10:09:09;9.90;;;6.18;;
31306;SDS011;17935;51.120;13.132;2023-08-20T10:11:35;7.43;;;6.65;;
31306;SDS011;17935;51.120;13.132;2023-08-20T10:14:02;7.65;;;6.93;;
31306;SDS011;17935;51.120;13.132;2023-08-20T10:16:28;10.73;;;7.53;;
31306;SDS011;17935;51.120;13.132;2023-08-20T10:18:54;11.13;;;7.10;;
31306;SDS011;17935;51.120;13.132;2023-08-20T10:21:24;10.95;;;8.00;;
31306;SDS011;17935;51.120;13.132;2023-08-20T10:23:50;10.75;;;8.00;;
31306;SDS011;17935;51.120;13.132;2023-08-20T10:26:16;9.95;;;7.30;;
31306;SDS011;17935;51.120;13.132;2023-08-20T10:28:43;12.60;;;8.23;;
31306;SDS011;17935;51.120;13.132;2023-08-20T10:31:10;13.20;;;8.02;;
31306;SDS011;17935;51.120;13.132;2023-08-20T10:33:37;11.13;;;8.45;;
31306;SDS011;17935;51.120;13.132;2023-08-20T10:36:13;14.55;;;9.45;;
31306;SDS011;17935;51.120;13.132;2023-08-20T10:38:39;10.73;;;8.65;;
31306;SDS011;17935;51.120;13.132;2023-08-20T10:41:08;9.60;;;8.50;;
31306;SDS011;17935;51.120;13.132;2023-08-20T10:43:38;11.60;;;8.32;;
31306;SDS011;17935;51.120;13.132;2023-08-20T10:46:08;10.00;;;8.95;;
31306;SDS011;17935;51.120;13.132;2023-08-20T10:48:39;9.38;;;7.70;;
31306;SDS011;17935;51.120;13.132;2023-08-20T10:51:09;10.77;;;8.70;;
31306;SDS011;17935;51.120;13.132;2023-08-20T10:53:36;12.07;;;7.75;;
31306;SDS011;17935;51.120;13.132;2023-08-20T10:56:08;11.80;;;8.90;;
31306;SDS011;17935;51.120;13.132;2023-08-20T10:58:35;8.88;;;7.60;;
31306;SDS011;17935;51.120;13.132;2023-08-20T11:01:12;11.40;;;9.48;;
31306;SDS011;17935;51.120;13.132;2023-08-20T11:03:38;13.18;;;8.57;;
31306;SDS011;17935;51.120;13.132;2023-08-20T11:06:04;12.32;;;8.88;;
31306;SDS011;17935;51.120;13.132;2023-08-20T11:08:32;10.02;;;8.38;;
31306;SDS011;17935;51.120;13.132;2023-08-20T11:10:58;15.05;;;9.80;;
31306;SDS011;17935;51.120;13.132;2023-08-20T11:13:25;12.18;;;10.50;;
31306;SDS011;17935;51.120;13.132;2023-08-20T11:15:51;12.70;;;10.23;;
31306;SDS011;17935;51.120;13.132;2023-08-20T11:18:17;10.38;;;9.23;;
31306;SDS011;17935;51.120;13.132;2023-08-20T11:20:43;15.82;;;11.35;;
31306;SDS011;17935;51.120;13.132;2023-08-20T11:23:09;11.93;;;8.50;;
31306;SDS011;17935;51.120;13.132;2023-08-20T11:25:40;16.42;;;9.15;;
31306;SDS011;17935;51.120;13.132;2023-08-20T11:28:07;11.57;;;9.52;;
31306;SDS011;17935;51.120;13.132;2023-08-20T11:30:33;12.13;;;8.50;;
31306;SDS011;17935;51.120;13.132;2023-08-20T11:32:59;13.02;;;9.68;;
31306;SDS011;17935;51.120;13.132;2023-08-20T11:35:25;9.70;;;8.73;;
31306;SDS011;17935;51.120;13.132;2023-08-20T11:37:52;11.30;;;7.85;;
31306;SDS011;17935;51.120;13.132;2023-08-20T11:40:21;11.07;;;7.85;;
31306;SDS011;17935;51.120;13.132;2023-08-20T11:42:47;8.65;;;7.70;;
31306;SDS011;17935;51.120;13.132;2023-08-20T11:45:14;12.00;;;8.70;;
31306;SDS011;17935;51.120;13.132;2023-08-20T11:47:40;11.73;;;8.57;;
31306;SDS011;17935;51.120;13.132;2023-08-20T11:50:07;11.18;;;8.80;;
31306;SDS011;17935;51.120;13.132;2023-08-20T11:52:33;9.15;;;8.25;;
31306;SDS011;17935;51.120;13.132;2023-08-20T11:55:01;13.38;;;8.00;;
31306;SDS011;17935;51.120;13.132;2023-08-20T11:57:31;10.00;;;7.20;;
31306;SDS011;17935;51.120;13.132;2023-08-20T12:00:03;9.07;;;7.68;;
31306;SDS011;17935;51.120;13.132;2023-08-20T12:02:29;10.00;;;7.45;;
31306;SDS011;17935;51.120;13.132;2023-08-20T12:04:56;8.40;;;6.88;;
31306;SDS011;17935;51.120;13.132;2023-08-20T12:07:26;8.38;;;7.00;;
31306;SDS011;17935;51.120;13.132;2023-08-20T12:09:53;12.27;;;8.35;;
31306;SDS011;17935;51.120;13.132;2023-08-20T12:12:21;9.23;;;7.40;;
31306;SDS011;17935;51.120;13.132;2023-08-20T12:14:47;11.35;;;7.50;;
31306;SDS011;17935;51.120;13.132;2023-08-20T12:17:17;9.48;;;7.57;;
31306;SDS011;17935;51.120;13.132;2023-08-20T12:19:43;15.95;;;8.70;;
31306;SDS011;17935;51.120;13.132;2023-08-20T12:22:09;11.93;;;7.50;;
31306;SDS011;17935;51.120;13.132;2023-08-20T12:24:35;12.00;;;7.22;;
31306;SDS011;17935;51.120;13.132;2023-08-20T12:27:01;10.93;;;7.70;;
31306;SDS011;17935;51.120;13.132;2023-08-20T12:29:28;7.65;;;6.95;;
31306;SDS011;17935;51.120;13.132;2023-08-20T12:31:54;7.88;;;6.65;;
31306;SDS011;17935;51.120;13.132;2023-08-20T12:34:21;9.77;;;7.20;;
31306;SDS011;17935;51.120;13.132;2023-08-20T12:36:48;7.55;;;6.78;;
31306;SDS011;17935;51.120;13.132;2023-08-20T12:39:14;12.65;;;6.90;;
31306;SDS011;17935;51.120;13.132;2023-08-20T12:41:41;9.48;;;6.40;;
31306;SDS011;17935;51.120;13.132;2023-08-20T12:44:08;9.63;;;7.03;;
31306;SDS011;17935;51.120;13.132;2023-08-20T12:46:34;8.80;;;6.07;;
31306;SDS011;17935;51.120;13.132;2023-08-20T12:49:00;11.45;;;6.72;;
31306;SDS011;17935;51.120;13.132;2023-08-20T12:51:26;10.85;;;7.00;;
31306;SDS011;17935;51.120;13.132;2023-08-20T12:53:52;8.77;;;7.28;;
31306;SDS011;17935;51.120;13.132;2023-08-20T12:56:18;8.30;;;7.03;;
31306;SDS011;17935;51.120;13.132;2023-08-20T12:58:44;7.50;;;6.80;;
31306;SDS011;17935;51.120;13.132;2023-08-20T13:01:10;10.85;;;7.03;;
31306;SDS011;17935;51.120;13.132;2023-08-20T13:03:36;8.43;;;7.47;;
31306;SDS011;17935;51.120;13.132;2023-08-20T13:06:03;8.43;;;7.40;;
31306;SDS011;17935;51.120;13.132;2023-08-20T13:08:29;11.55;;;7.68;;
31306;SDS011;17935;51.120;13.132;2023-08-20T13:10:56;10.10;;;7.03;;
31306;SDS011;17935;51.120;13.132;2023-08-20T13:13:23;13.70;;;7.78;;
31306;SDS011;17935;51.120;13.132;2023-08-20T13:15:52;8.38;;;7.10;;
31306;SDS011;17935;51.120;13.132;2023-08-20T13:18:18;8.23;;;7.43;;
31306;SDS011;17935;51.120;13.132;2023-08-20T13:20:45;10.80;;;7.50;;
31306;SDS011;17935;51.120;13.132;2023-08-20T13:23:11;8.30;;;7.03;;
31306;SDS011;17935;51.120;13.132;2023-08-20T13:25:37;9.70;;;7.70;;
31306;SDS011;17935;51.120;13.132;2023-08-20T13:28:03;10.55;;;7.35;;
31306;SDS011;17935;51.120;13.132;2023-08-20T13:30:29;10.90;;;7.45;;
31306;SDS011;17935;51.120;13.132;2023-08-20T13:32:58;8.50;;;7.03;;
31306;SDS011;17935;51.120;13.132;2023-08-20T13:35:24;8.52;;;6.60;;
31306;SDS011;17935;51.120;13.132;2023-08-20T13:37:50;10.18;;;6.85;;
31306;SDS011;17935;51.120;13.132;2023-08-20T13:40:17;7.25;;;6.35;;
31306;SDS011;17935;51.120;13.132;2023-08-20T13:42:43;10.75;;;7.22;;
31306;SDS011;17935;51.120;13.132;2023-08-20T13:45:09;7.45;;;6.68;;
31306;SDS011;17935;51.120;13.132;2023-08-20T13:47:35;9.50;;;7.25;;
31306;SDS011;17935;51.120;13.132;2023-08-20T13:50:02;8.23;;;7.38;;
31306;SDS011;17935;51.120;13.132;2023-08-20T13:52:29;13.48;;;7.90;;
31306;SDS011;17935;51.120;13.132;2023-08-20T13:54:55;10.73;;;7.78;;
31306;SDS011;17935;51.120;13.132;2023-08-20T13:57:21;9.73;;;7.82;;
31306;SDS011;17935;51.120;13.132;2023-08-20T13:59:47;10.18;;;6.43;;
31306;SDS011;17935;51.120;13.132;2023-08-20T14:02:13;10.73;;;7.82;;
31306;SDS011;17935;51.120;13.132;2023-08-20T14:04:39;10.55;;;7.65;;
31306;SDS011;17935;51.120;13.132;2023-08-20T14:07:05;10.18;;;7.20;;
31306;SDS011;17935;51.120;13.132;2023-08-20T14:09:31;10.25;;;8.05;;
31306;SDS011;17935;51.120;13.132;2023-08-20T14:11:59;14.15;;;7.28;;
31306;SDS011;17935;51.120;13.132;2023-08-20T14:14:25;9.55;;;6.72;;
31306;SDS011;17935;51.120;13.132;2023-08-20T14:16:52;10.88;;;7.80;;
31306;SDS011;17935;51.120;13.132;2023-08-20T14:19:18;12.88;;;6.97;;
31306;SDS011;17935;51.120;13.132;2023-08-20T14:21:44;8.15;;;7.35;;
31306;SDS011;17935;51.120;13.132;2023-08-20T14:24:10;7.82;;;7.03;;